createdAt,value
2018-07-05T00:01:15.059Z,91.87
2018-07-05T00:03:55.220Z,91.34
2018-07-05T00:06:35.180Z,91.28
2018-07-05T00:09:15.463Z,91.08
2018-07-05T00:11:55.287Z,91.23
2018-07-05T00:14:35.304Z,90.50
2018-07-05T00:17:15.307Z,91.40
2018-07-05T00:19:55.069Z,93.36
2018-07-05T00:22:34.899Z,92.91
2018-07-05T00:25:15.195Z,93.29
2018-07-05T00:27:55.147Z,93.03
2018-07-05T00:30:35.308Z,93.56
2018-07-05T00:33:15.024Z,93.40
2018-07-05T00:35:55.168Z,92.76
2018-07-05T00:38:34.997Z,93.39
2018-07-05T00:41:15.134Z,92.86
2018-07-05T00:43:55.132Z,93.10
2018-07-05T00:46:35.414Z,93.27
2018-07-05T00:49:15.581Z,94.03
2018-07-05T00:51:55.718Z,94.15
2018-07-05T00:54:35.907Z,94.18
2018-07-05T00:57:16.389Z,93.49
2018-07-05T00:59:56.497Z,92.87
2018-07-05T01:02:36.579Z,92.74
2018-07-05T01:05:16.526Z,92.53
2018-07-05T01:07:56.799Z,92.03
2018-07-05T01:10:36.851Z,91.27
2018-07-05T01:13:17.303Z,90.83
2018-07-05T01:15:57.303Z,90.39
2018-07-05T01:18:37.833Z,90.62
2018-07-05T01:21:18.087Z,92.86
2018-07-05T01:23:58.241Z,92.90
2018-07-05T01:26:38.377Z,93.46
2018-07-05T01:29:18.620Z,93.47
2018-07-05T01:31:58.626Z,94.49
2018-07-05T01:34:38.949Z,94.19
2018-07-05T01:37:19.045Z,93.67
2018-07-05T01:39:59.913Z,92.83
2018-07-05T01:42:39.894Z,93.18
2018-07-05T01:45:20.198Z,93.52
2018-07-05T01:48:00.206Z,92.01
2018-07-05T01:50:40.525Z,92.05
2018-07-05T01:53:20.341Z,92.26
2018-07-05T01:56:00.739Z,92.65
2018-07-05T01:58:40.563Z,92.91
2018-07-05T02:01:20.541Z,92.75
2018-07-05T02:04:00.636Z,93.06
2018-07-05T02:06:41.326Z,92.64
2018-07-05T02:09:21.246Z,93.04
2018-07-05T02:12:02.564Z,93.48
2018-07-05T02:14:42.537Z,93.28
2018-07-05T02:17:22.462Z,93.61
2018-07-05T02:20:02.346Z,93.78
2018-07-05T02:22:42.497Z,93.45
2018-07-05T02:25:22.402Z,93.86
2018-07-05T02:28:02.495Z,94.35
2018-07-05T02:30:42.379Z,93.82
2018-07-05T02:33:22.628Z,93.96
2018-07-05T02:36:02.581Z,93.89
2018-07-05T02:38:42.808Z,93.67
2018-07-05T02:41:22.895Z,93.37
2018-07-05T02:44:03.281Z,92.96
2018-07-05T02:46:43.088Z,90.98
2018-07-05T02:49:23.405Z,91.09
2018-07-05T02:52:03.281Z,91.70
2018-07-05T02:54:43.527Z,91.68
2018-07-05T02:57:23.391Z,90.02
2018-07-05T03:00:03.579Z,88.99
2018-07-05T03:02:43.514Z,89.89
2018-07-05T03:05:23.528Z,89.92
2018-07-05T03:08:04.289Z,90.59
2018-07-05T03:10:44.614Z,90.99
2018-07-05T03:13:24.607Z,90.44
2018-07-05T03:16:04.916Z,91.31
2018-07-05T03:18:44.919Z,90.32
2018-07-05T03:21:24.972Z,90.03
2018-07-05T03:24:04.969Z,89.24
2018-07-05T03:26:44.917Z,88.14
2018-07-05T03:29:24.808Z,85.90
2018-07-05T03:32:04.765Z,84.30
2018-07-05T03:34:44.593Z,82.10
2018-07-05T03:37:24.500Z,80.35
2018-07-05T03:40:04.301Z,78.03
2018-07-05T03:42:44.851Z,76.51
2018-07-05T03:45:24.763Z,76.96
2018-07-05T03:48:04.711Z,77.17
2018-07-05T03:50:44.408Z,76.69
2018-07-05T03:53:24.333Z,75.60
2018-07-05T03:56:04.218Z,74.51
2018-07-05T03:58:44.645Z,74.84
2018-07-05T04:01:24.661Z,73.67
2018-07-05T04:04:05.153Z,73.98
2018-07-05T04:06:44.904Z,71.79
2018-07-05T04:09:25.140Z,71.91
2018-07-05T04:12:04.984Z,71.78
2018-07-05T04:14:44.955Z,70.51
2018-07-05T04:17:24.727Z,69.35
2018-07-05T04:20:04.451Z,68.16
2018-07-05T04:22:44.276Z,66.90
2018-07-05T04:25:24.332Z,67.40
2018-07-05T04:28:04.248Z,65.65
2018-07-05T04:30:44.465Z,64.76
2018-07-05T04:33:24.312Z,65.67
2018-07-05T04:36:04.745Z,64.73
2018-07-05T04:38:44.571Z,61.93
2018-07-05T04:41:25.285Z,60.94
2018-07-05T04:44:05.083Z,60.78
2018-07-05T04:46:45.257Z,60.20
2018-07-05T04:49:25.177Z,59.10
2018-07-05T04:52:05.167Z,58.33
2018-07-05T04:54:45.140Z,58.95
2018-07-05T04:57:25.329Z,58.13
2018-07-05T05:00:08.795Z,56.86
2018-07-05T05:02:48.791Z,56.43
2018-07-05T05:05:28.612Z,56.22
2018-07-05T05:08:08.730Z,55.45
2018-07-05T05:10:48.619Z,56.23
2018-07-05T05:13:28.912Z,55.32
2018-07-05T05:16:08.737Z,52.29
2018-07-05T05:18:48.771Z,54.85
2018-07-05T05:21:28.633Z,54.76
2018-07-05T05:24:08.950Z,53.59
2018-07-05T05:26:48.619Z,51.98
2018-07-05T05:29:28.796Z,52.42
2018-07-05T05:32:08.568Z,52.41
2018-07-05T05:34:48.386Z,52.87
2018-07-05T05:37:28.304Z,51.96
2018-07-05T05:40:08.814Z,51.71
2018-07-05T05:42:48.644Z,52.47
2018-07-05T05:45:29.148Z,52.49
2018-07-05T05:48:09.249Z,52.64
2018-07-05T05:50:49.423Z,52.00
2018-07-05T05:53:29.284Z,49.98
2018-07-05T05:56:09.362Z,50.09
2018-07-05T05:58:49.154Z,50.00
2018-07-05T06:01:29.060Z,49.91
2018-07-05T06:04:08.780Z,50.61
2018-07-05T06:06:48.940Z,50.37
2018-07-05T06:09:29.752Z,49.48
2018-07-05T06:12:09.578Z,50.55
2018-07-05T06:14:49.442Z,50.46
2018-07-05T06:17:29.413Z,49.20
2018-07-05T06:20:09.195Z,49.54
2018-07-05T06:22:49.427Z,49.04
2018-07-05T06:25:29.377Z,50.74
2018-07-05T06:28:09.606Z,52.38
2018-07-05T06:30:49.464Z,52.89
2018-07-05T06:33:29.754Z,54.10
2018-07-05T06:36:09.763Z,53.50
2018-07-05T06:38:49.809Z,54.55
2018-07-05T06:41:29.684Z,54.37
2018-07-05T06:44:09.558Z,54.53
2018-07-05T06:46:50.031Z,54.39
2018-07-05T06:49:30.405Z,55.18
2018-07-05T06:52:10.280Z,54.74
2018-07-05T06:54:50.971Z,55.41
2018-07-05T06:57:31.034Z,56.04
2018-07-05T07:00:11.616Z,56.98
2018-07-05T07:02:51.506Z,57.28
2018-07-05T07:05:31.723Z,56.66
2018-07-05T07:08:11.645Z,55.22
2018-07-05T07:10:51.479Z,54.77
2018-07-05T07:13:31.306Z,54.65
2018-07-05T07:16:11.721Z,55.09
2018-07-05T07:18:51.586Z,55.07
2018-07-05T07:21:31.847Z,55.47
2018-07-05T07:24:11.669Z,55.80
2018-07-05T07:26:52.263Z,55.60
2018-07-05T07:29:32.108Z,53.88
2018-07-05T07:32:12.652Z,52.70
2018-07-05T07:34:52.492Z,53.81
2018-07-05T07:37:32.539Z,53.84
2018-07-05T07:40:12.303Z,54.75
2018-07-05T07:42:40.332Z,53.56
2018-07-05T07:45:07.840Z,54.15
2018-07-05T07:47:35.387Z,53.79
2018-07-05T07:50:03.045Z,53.73
2018-07-05T07:52:30.658Z,53.13
2018-07-05T07:54:58.222Z,52.90
2018-07-05T07:57:25.795Z,52.30
2018-07-05T07:59:54.407Z,52.90
2018-07-05T08:02:22.060Z,52.53
2018-07-05T08:04:49.703Z,51.37
2018-07-05T08:07:17.177Z,51.34
2018-07-05T08:09:44.821Z,50.56
2018-07-05T08:12:12.576Z,50.41
2018-07-05T08:14:40.153Z,50.01
2018-07-05T08:17:07.739Z,51.38
2018-07-05T08:19:35.315Z,50.66
2018-07-05T08:22:02.866Z,52.10
2018-07-05T08:24:30.494Z,50.13
2018-07-05T08:26:57.972Z,49.23
2018-07-05T08:29:25.480Z,49.98
2018-07-05T08:31:52.939Z,51.98
2018-07-05T08:34:21.005Z,48.83
2018-07-05T08:36:48.676Z,48.35
2018-07-05T08:39:16.330Z,48.89
2018-07-05T08:41:43.998Z,49.28
2018-07-05T08:44:11.648Z,47.82
2018-07-05T08:46:39.131Z,47.00
2018-07-05T08:49:07.136Z,46.84
2018-07-05T08:51:34.624Z,46.47
2018-07-05T08:54:02.103Z,46.41
2018-07-05T08:56:29.835Z,45.32
2018-07-05T08:58:57.350Z,47.03
2018-07-05T09:01:25.574Z,47.26
2018-07-05T09:03:53.287Z,45.53
2018-07-05T09:06:20.908Z,44.51
2018-07-05T09:08:48.580Z,45.20
2018-07-05T09:11:16.578Z,46.01
2018-07-05T09:13:44.137Z,44.21
2018-07-05T09:16:11.750Z,44.17
2018-07-05T09:18:39.489Z,45.88
2018-07-05T09:21:07.032Z,45.58
2018-07-05T09:23:34.549Z,45.60
2018-07-05T09:26:02.197Z,45.08
2018-07-05T09:28:29.767Z,43.70
2018-07-05T09:31:01.228Z,44.57
2018-07-05T09:33:28.824Z,45.27
2018-07-05T09:35:56.414Z,44.04
2018-07-05T09:38:24.021Z,44.52
2018-07-05T09:40:51.568Z,45.39
2018-07-05T09:43:19.033Z,45.55
2018-07-05T09:45:46.536Z,45.13
2018-07-05T09:48:14.575Z,44.98
2018-07-05T09:50:42.118Z,42.35
2018-07-05T09:53:09.676Z,44.55
2018-07-05T09:55:37.260Z,42.78
2018-07-05T09:58:04.782Z,43.94
2018-07-05T10:00:37.440Z,44.48
2018-07-05T10:03:05.015Z,44.19
2018-07-05T10:05:32.472Z,43.05
2018-07-05T10:07:59.968Z,43.10
2018-07-05T10:10:27.550Z,43.96
2018-07-05T10:12:55.036Z,44.79
2018-07-05T10:15:23.326Z,42.31
2018-07-05T10:17:50.780Z,42.71
2018-07-05T10:20:18.238Z,43.23
2018-07-05T10:22:46.486Z,43.43
2018-07-05T10:25:14.003Z,41.79
2018-07-05T10:27:41.631Z,40.80
2018-07-05T10:30:21.700Z,40.71
2018-07-05T10:33:01.607Z,40.91
2018-07-05T10:35:29.559Z,39.95
2018-07-05T10:38:02.243Z,39.18
2018-07-05T10:40:43.510Z,38.08
2018-07-05T10:43:23.281Z,38.34
2018-07-05T10:46:03.781Z,36.50
2018-07-05T10:48:43.708Z,37.80
2018-07-05T10:51:23.958Z,38.72
2018-07-05T10:54:04.840Z,39.49
2018-07-05T10:56:45.037Z,40.63
2018-07-05T10:59:24.995Z,38.28
2018-07-05T11:02:05.584Z,38.66
2018-07-05T11:04:45.581Z,38.47
2018-07-05T11:07:25.421Z,37.92
2018-07-05T11:10:05.354Z,38.68
2018-07-05T11:12:45.410Z,38.51
2018-07-05T11:15:25.310Z,38.25
2018-07-05T11:18:05.461Z,37.88
2018-07-05T11:20:45.367Z,36.52
2018-07-05T11:23:25.347Z,36.77
2018-07-05T11:26:06.212Z,36.54
2018-07-05T11:28:46.367Z,37.96
2018-07-05T11:31:26.198Z,37.71
2018-07-05T11:34:06.084Z,36.84
2018-07-05T11:36:46.197Z,38.42
2018-07-05T11:39:26.043Z,39.00
2018-07-05T11:42:05.966Z,39.05
2018-07-05T11:44:46.285Z,39.59
2018-07-05T11:47:26.151Z,39.85
2018-07-05T11:50:06.445Z,38.81
2018-07-05T11:52:46.372Z,36.94
2018-07-05T11:55:26.783Z,37.28
2018-07-05T11:58:06.737Z,37.96
2018-07-05T12:00:47.197Z,37.12
2018-07-05T12:03:27.165Z,36.98
2018-07-05T12:06:07.143Z,37.52
2018-07-05T12:08:47.191Z,37.12
2018-07-05T12:11:27.354Z,36.92
2018-07-05T12:14:07.260Z,37.08
2018-07-05T12:16:47.050Z,36.25
2018-07-05T12:19:26.846Z,36.47
2018-07-05T12:22:06.793Z,36.97
2018-07-05T12:24:46.679Z,36.65
2018-07-05T12:27:26.650Z,36.47
2018-07-05T12:30:06.909Z,35.37
2018-07-05T12:32:47.157Z,36.81
2018-07-05T12:35:26.956Z,33.90
2018-07-05T12:38:07.037Z,34.81
2018-07-05T12:40:46.895Z,35.78
2018-07-05T12:43:27.147Z,33.24
2018-07-05T12:46:06.917Z,33.32
2018-07-05T12:48:47.457Z,34.32
2018-07-05T12:51:27.239Z,34.01
2018-07-05T12:54:07.393Z,33.48
2018-07-05T12:56:47.178Z,33.33
2018-07-05T12:59:27.171Z,33.36
2018-07-05T13:02:07.072Z,33.52
2018-07-05T13:04:46.988Z,35.19
2018-07-05T13:07:26.778Z,33.04
2018-07-05T13:10:06.591Z,33.89
2018-07-05T13:12:46.448Z,33.76
2018-07-05T13:15:26.885Z,35.47
2018-07-05T13:18:06.673Z,35.21
2018-07-05T13:20:46.952Z,35.43
2018-07-05T13:23:26.834Z,35.07
2018-07-05T13:26:06.758Z,34.92
2018-07-05T13:28:46.832Z,34.06
2018-07-05T13:31:26.604Z,34.99
2018-07-05T13:34:06.534Z,36.00
2018-07-05T13:36:46.547Z,36.19
2018-07-05T13:39:26.360Z,35.16
2018-07-05T13:42:06.424Z,36.41
2018-07-05T13:44:46.490Z,35.74
2018-07-05T13:47:26.978Z,33.40
2018-07-05T13:50:06.840Z,32.98
2018-07-05T13:52:47.874Z,33.78
2018-07-05T13:55:27.687Z,33.32
2018-07-05T13:58:07.752Z,33.06
2018-07-05T14:00:47.927Z,33.05
2018-07-05T14:03:28.661Z,33.07
2018-07-05T14:06:08.446Z,33.52
2018-07-05T14:08:48.425Z,32.97
2018-07-05T14:11:28.399Z,32.43
2018-07-05T14:14:08.401Z,32.90
2018-07-05T14:16:48.134Z,32.87
2018-07-05T14:19:28.512Z,33.12
2018-07-05T14:22:08.329Z,32.81
2018-07-05T14:24:48.757Z,30.94
2018-07-05T14:27:28.694Z,32.16
2018-07-05T14:30:08.627Z,32.64
2018-07-05T14:32:48.488Z,32.29
2018-07-05T14:35:28.795Z,33.45
2018-07-05T14:38:08.637Z,34.75
2018-07-05T14:40:48.710Z,35.77
2018-07-05T14:43:28.479Z,36.58
2018-07-05T14:46:08.492Z,37.17
2018-07-05T14:48:48.376Z,35.57
2018-07-05T14:51:28.484Z,37.46
2018-07-05T14:54:08.203Z,36.80
2018-07-05T14:56:48.379Z,36.97
2018-07-05T14:59:28.334Z,36.79
2018-07-05T15:02:08.674Z,37.02
2018-07-05T15:04:48.677Z,38.25
2018-07-05T15:07:28.711Z,37.47
2018-07-05T15:10:08.638Z,37.27
2018-07-05T15:12:48.467Z,35.91
2018-07-05T15:15:28.240Z,36.11
2018-07-05T15:18:07.971Z,36.71
2018-07-05T15:20:47.736Z,36.36
2018-07-05T15:23:27.856Z,36.82
2018-07-05T15:26:07.555Z,36.36
2018-07-05T15:28:47.947Z,37.22
2018-07-05T15:31:27.769Z,38.05
2018-07-05T15:34:07.881Z,37.78
2018-07-05T15:36:47.948Z,38.10
2018-07-05T15:39:28.164Z,38.32
2018-07-05T15:42:07.959Z,39.25
2018-07-05T15:44:48.970Z,39.51
2018-07-05T15:47:28.850Z,38.53
2018-07-05T15:50:08.819Z,39.10
2018-07-05T15:52:48.854Z,39.62
2018-07-05T15:55:29.013Z,40.60
2018-07-05T15:58:08.877Z,39.86
2018-07-05T16:00:48.892Z,39.75
2018-07-05T16:03:28.762Z,39.40
2018-07-05T16:06:08.842Z,39.42
2018-07-05T16:08:48.729Z,40.48
2018-07-05T16:11:28.639Z,39.44
2018-07-05T16:14:08.443Z,40.81
2018-07-05T16:16:48.398Z,39.29
2018-07-05T16:19:28.234Z,40.53
2018-07-05T16:22:08.347Z,39.52
2018-07-05T16:24:48.111Z,39.31
2018-07-05T16:27:28.431Z,39.95
2018-07-05T16:30:08.204Z,39.92
2018-07-05T16:32:48.027Z,39.96
2018-07-05T16:35:27.989Z,40.90
2018-07-05T16:38:07.758Z,41.26
2018-07-05T16:40:47.545Z,41.29
2018-07-05T16:43:27.441Z,41.06
2018-07-05T16:46:07.360Z,40.22
2018-07-05T16:48:47.606Z,41.34
2018-07-05T16:51:27.383Z,41.52
2018-07-05T16:54:07.885Z,41.47
2018-07-05T16:56:47.638Z,40.87
2018-07-05T16:59:27.476Z,41.66
2018-07-05T17:02:07.409Z,41.94
2018-07-05T17:04:47.659Z,42.04
2018-07-05T17:07:27.609Z,41.85
2018-07-05T17:10:07.814Z,41.65
2018-07-05T17:12:48.069Z,41.87
2018-07-05T17:15:28.312Z,41.98
2018-07-05T17:18:08.429Z,42.30
2018-07-05T17:20:48.218Z,42.30
2018-07-05T17:23:28.195Z,42.44
2018-07-05T17:26:08.184Z,42.28
2018-07-05T17:28:48.207Z,42.96
2018-07-05T17:31:28.121Z,43.23
2018-07-05T17:34:08.149Z,43.72
2018-07-05T17:36:48.477Z,43.59
2018-07-05T17:39:28.215Z,44.43
2018-07-05T17:42:07.998Z,44.36
2018-07-05T17:44:47.995Z,44.04
2018-07-05T17:47:27.972Z,45.28
2018-07-05T17:50:07.911Z,44.47
2018-07-05T17:52:47.884Z,46.14
2018-07-05T17:55:27.691Z,46.51
2018-07-05T17:58:07.505Z,45.84
2018-07-05T18:00:47.404Z,47.10
2018-07-05T18:03:27.743Z,47.28
2018-07-05T18:06:07.505Z,46.21
2018-07-05T18:08:47.639Z,46.24
2018-07-05T18:11:27.321Z,46.29
2018-07-05T18:14:07.161Z,46.57
2018-07-05T18:16:46.964Z,47.06
2018-07-05T18:19:27.622Z,47.29
2018-07-05T18:22:07.341Z,47.72
2018-07-05T18:24:47.720Z,47.13
2018-07-05T18:27:27.507Z,47.08
2018-07-05T18:30:07.829Z,47.33
2018-07-05T18:32:47.545Z,47.30
2018-07-05T18:35:27.337Z,47.94
2018-07-05T18:38:07.167Z,48.26
2018-07-05T18:40:47.406Z,47.98
2018-07-05T18:43:27.182Z,48.33
2018-07-05T18:46:07.096Z,50.51
2018-07-05T18:48:46.943Z,50.49
2018-07-05T18:51:26.977Z,51.52
2018-07-05T18:54:06.923Z,52.07
2018-07-05T18:56:46.721Z,52.81
2018-07-05T18:59:26.478Z,54.34
2018-07-05T19:02:06.723Z,54.92
2018-07-05T19:04:46.870Z,55.49
2018-07-05T19:07:26.841Z,55.17
2018-07-05T19:10:09.047Z,55.63
2018-07-05T19:12:50.055Z,56.02
2018-07-05T19:15:30.253Z,56.54
2018-07-05T19:18:10.159Z,56.92
2018-07-05T19:20:50.955Z,56.35
2018-07-05T19:23:30.667Z,56.46
2018-07-05T19:26:15.174Z,56.32
2018-07-05T19:28:55.167Z,57.08
2018-07-05T19:31:36.962Z,56.31
2018-07-05T19:34:17.557Z,57.43
2018-07-05T19:36:58.894Z,57.34
2018-07-05T19:39:39.062Z,56.80
2018-07-05T19:42:19.563Z,57.48
2018-07-05T19:44:59.737Z,57.03
2018-07-05T19:47:39.846Z,57.73
2018-07-05T19:50:20.258Z,57.30
2018-07-05T19:53:00.520Z,57.17
2018-07-05T19:55:40.332Z,57.84
2018-07-05T19:58:20.358Z,58.20
2018-07-05T20:01:00.491Z,58.89
2018-07-05T20:03:40.793Z,59.41
2018-07-05T20:06:20.718Z,58.96
2018-07-05T20:09:01.122Z,59.61
2018-07-05T20:11:46.356Z,60.17
2018-07-05T20:14:27.038Z,61.86
2018-07-05T20:17:06.741Z,61.37
2018-07-05T20:19:46.529Z,62.71
2018-07-05T20:22:26.204Z,62.59
2018-07-05T20:25:06.929Z,63.62
2018-07-05T20:27:47.010Z,63.90
2018-07-05T20:30:26.988Z,63.67
2018-07-05T20:33:06.876Z,63.21
2018-07-05T20:35:47.376Z,64.62
2018-07-05T20:38:27.429Z,64.21
2018-07-05T20:41:07.893Z,64.80
2018-07-05T20:43:47.979Z,64.49
2018-07-05T20:46:28.186Z,64.14
2018-07-05T20:49:08.642Z,65.56
2018-07-05T20:51:48.501Z,66.41
2018-07-05T20:54:28.477Z,66.07
2018-07-05T20:57:08.497Z,66.99
2018-07-05T20:59:48.448Z,67.54
2018-07-05T21:02:28.822Z,68.01
2018-07-05T21:05:09.361Z,68.25
2018-07-05T21:07:50.046Z,67.88
2018-07-05T21:10:30.127Z,67.41
2018-07-05T21:13:11.022Z,66.93
2018-07-05T21:15:51.411Z,67.24
2018-07-05T21:18:31.352Z,66.84
2018-07-05T21:21:11.811Z,66.54
2018-07-05T21:23:51.671Z,66.91
2018-07-05T21:26:31.717Z,67.87
2018-07-05T21:29:11.688Z,67.36
2018-07-05T21:31:51.815Z,68.18
2018-07-05T21:34:31.686Z,67.81
2018-07-05T21:37:11.869Z,67.01
2018-07-05T21:39:51.854Z,67.76
2018-07-05T21:42:31.994Z,67.13
2018-07-05T21:45:11.864Z,67.65
2018-07-05T21:47:52.347Z,68.46
2018-07-05T21:50:32.546Z,68.40
2018-07-05T21:53:12.483Z,69.17
2018-07-05T21:55:52.275Z,69.12
2018-07-05T22:01:06.565Z,68.91
2018-07-05T22:03:47.213Z,69.41
2018-07-05T22:06:27.117Z,68.74
2018-07-05T22:09:07.340Z,69.41
2018-07-05T22:11:47.266Z,69.12
2018-07-05T22:14:27.019Z,69.27
2018-07-05T22:17:12.227Z,69.79
2018-07-05T22:19:57.852Z,69.33
2018-07-05T22:22:42.876Z,69.36
2018-07-05T22:25:28.328Z,69.84
2018-07-05T22:29:15.587Z,69.23
2018-07-05T22:31:58.959Z,68.89
2018-07-05T22:34:38.918Z,68.77
2018-07-05T22:37:19.228Z,68.37
2018-07-05T22:39:59.213Z,69.20
2018-07-05T22:42:39.268Z,69.98
2018-07-05T22:45:19.242Z,69.98
2018-07-05T22:47:59.407Z,70.42
2018-07-05T22:50:39.275Z,70.92
2018-07-05T22:53:19.388Z,71.41
2018-07-05T22:55:59.426Z,72.49
2018-07-05T22:58:39.365Z,71.82
2018-07-05T23:01:19.187Z,72.21
2018-07-05T23:03:59.321Z,73.29
2018-07-05T23:06:39.272Z,73.66
2018-07-05T23:09:19.308Z,73.65
2018-07-05T23:11:59.235Z,73.21
2018-07-05T23:14:39.665Z,73.37
2018-07-05T23:17:19.568Z,73.63
2018-07-05T23:19:59.367Z,73.66
2018-07-05T23:22:39.148Z,73.61
2018-07-05T23:25:19.112Z,73.06
2018-07-05T23:27:59.145Z,72.83
2018-07-05T23:30:39.226Z,73.64
2018-07-05T23:33:19.107Z,73.08
2018-07-05T23:35:59.264Z,72.98
2018-07-05T23:38:39.220Z,73.80
2018-07-05T23:41:19.590Z,73.69
2018-07-05T23:44:00.413Z,74.23
2018-07-05T23:46:40.937Z,74.78
2018-07-05T23:49:20.788Z,74.82
2018-07-05T23:52:01.054Z,75.30
2018-07-05T23:54:41.126Z,75.87
2018-07-05T23:57:21.426Z,75.54
